Time;durP1;ratioP1;P1;durP2;ratioP2;P2;SDS_P1;SDS_P2;PMS_P1;PMS_P2;Temp;Humidity;BMP_temperature;BMP_pressure;BME280_temperature;BME280_humidity;BME280_pressure;Samples;Min_cycle;Max_cycle;Signal;HPM_P1;HPM_P2
2024/02/21 00:00:55;;;;;;;3.80;2.80;;;;;;;0.42;76.12;101079.41;5053810;28;20483;-71
2024/02/21 00:03:22;;;;;;;3.43;2.63;;;;;;;0.41;75.62;101075.09;5053891;28;20433;-72
2024/02/21 00:05:49;;;;;;;4.73;2.67;;;;;;;0.42;75.50;101079.41;5053888;28;20442;-71
2024/02/21 00:08:18;;;;;;;3.37;2.10;;;;;;;0.43;76.05;101085.44;5053731;28;20438;-72
2024/02/21 00:10:45;;;;;;;3.27;2.10;;;;;;;0.43;75.81;101075.16;5054022;28;20446;-71
2024/02/21 00:13:12;;;;;;;3.17;2.40;;;;;;;0.43;75.77;101073.44;5053569;28;20438;-72
2024/02/21 00:15:38;;;;;;;3.43;2.60;;;;;;;0.42;75.82;101071.69;5053645;28;20444;-72
2024/02/21 00:18:06;;;;;;;3.03;2.30;;;;;;;0.43;75.75;101070.88;5053721;28;20469;-71
2024/02/21 00:20:32;;;;;;;3.07;2.30;;;;;;;0.43;75.40;101065.72;5053324;28;20447;-71
2024/02/21 00:22:59;;;;;;;4.23;2.63;;;;;;;0.43;75.90;101065.72;5053769;28;20449;-72
2024/02/21 00:25:27;;;;;;;5.50;2.80;;;;;;;0.43;75.81;101059.69;5053092;28;20871;-72
2024/02/21 00:27:54;;;;;;;4.23;2.43;;;;;;;0.43;76.04;101054.56;5053393;28;20434;-72
2024/02/21 00:30:21;;;;;;;3.47;2.07;;;;;;;0.42;75.32;101052.81;5053457;28;20439;-72
2024/02/21 00:32:48;;;;;;;3.10;2.23;;;;;;;0.42;75.57;101048.50;5053415;28;20442;-72
2024/02/21 00:35:15;;;;;;;2.60;2.00;;;;;;;0.42;75.59;101055.38;5053273;28;20452;-72
2024/02/21 00:37:42;;;;;;;3.93;2.30;;;;;;;0.41;75.82;101051.94;5053129;28;20430;-72
2024/02/21 00:40:10;;;;;;;3.07;2.23;;;;;;;0.41;75.72;101040.78;5053067;28;20447;-72
2024/02/21 00:42:38;;;;;;;3.83;2.30;;;;;;;0.41;75.78;101046.78;5053059;28;20485;-72
2024/02/21 00:45:06;;;;;;;3.07;2.10;;;;;;;0.40;76.03;101037.34;5053058;28;20965;-72
2024/02/21 00:47:33;;;;;;;3.87;2.43;;;;;;;0.41;75.83;101035.63;5053032;28;20870;-72
2024/02/21 00:50:00;;;;;;;3.30;2.37;;;;;;;0.40;75.95;101029.63;5052964;28;20958;-71
2024/02/21 00:52:27;;;;;;;3.27;2.67;;;;;;;0.39;75.63;101022.69;5052930;28;20931;-72
2024/02/21 00:54:54;;;;;;;3.37;2.67;;;;;;;0.40;76.25;101024.47;5053005;28;21072;-71
2024/02/21 00:57:21;;;;;;;3.10;2.27;;;;;;;0.40;75.58;101029.63;5052917;28;20438;-72
2024/02/21 00:59:49;;;;;;;3.47;2.33;;;;;;;0.40;75.72;101024.47;5052939;28;20449;-71
2024/02/21 01:02:16;;;;;;;3.20;2.30;;;;;;;0.40;76.01;101021.03;5052719;28;20791;-71
2024/02/21 01:04:43;;;;;;;3.97;2.27;;;;;;;0.40;75.99;101019.31;5052910;28;20426;-71
2024/02/21 01:07:09;;;;;;;2.87;2.20;;;;;;;0.41;76.31;101020.19;5052670;28;20777;-70
2024/02/21 01:09:36;;;;;;;2.77;2.23;;;;;;;0.41;75.84;101015.91;5053005;28;20456;-71
2024/02/21 01:12:03;;;;;;;2.87;1.83;;;;;;;0.41;76.27;101015.91;5052567;28;20457;-71
2024/02/21 01:14:30;;;;;;;3.80;2.37;;;;;;;0.41;76.04;101005.59;5052775;28;20430;-71
2024/02/21 01:16:59;;;;;;;4.37;2.60;;;;;;;0.42;75.73;100996.16;5052601;28;20446;-70
2024/02/21 01:19:25;;;;;;;2.40;1.97;;;;;;;0.43;75.71;100996.22;5052628;28;20426;-71
2024/02/21 01:21:53;;;;;;;2.57;2.07;;;;;;;0.43;75.81;100985.91;5052381;28;21051;-71
2024/02/21 01:24:20;;;;;;;2.50;2.13;;;;;;;0.43;75.81;100969.63;5052530;28;20436;-71
2024/02/21 01:26:47;;;;;;;2.73;1.83;;;;;;;0.46;75.83;100961.97;5052410;28;20440;-71
2024/02/21 01:29:14;;;;;;;3.00;1.90;;;;;;;0.44;76.02;100953.31;5052348;28;20439;-71
2024/02/21 01:31:40;;;;;;;2.40;1.80;;;;;;;0.45;75.88;100952.47;5052809;28;20444;-70
2024/02/21 01:34:09;;;;;;;2.20;1.70;;;;;;;0.43;76.10;100939.59;5052370;28;20444;-71
2024/02/21 01:36:36;;;;;;;4.00;2.00;;;;;;;0.45;76.44;100944.75;5052270;28;20437;-70
2024/02/21 01:39:03;;;;;;;3.03;1.80;;;;;;;0.47;76.09;100937.94;5055986;28;20437;-71
2024/02/21 01:41:31;;;;;;;3.37;1.87;;;;;;;0.47;75.84;100933.66;5056440;28;20474;-71
2024/02/21 01:43:58;;;;;;;2.10;1.90;;;;;;;0.46;75.85;100929.34;5056780;28;20444;-71
2024/02/21 01:46:28;;;;;;;2.10;1.90;;;;;;;0.47;75.94;100927.63;5056416;28;20444;-71
2024/02/21 01:48:55;;;;;;;2.67;1.93;;;;;;;0.44;75.72;100913.00;5056766;28;20438;-71
2024/02/21 01:51:24;;;;;;;4.17;2.17;;;;;;;0.48;76.22;100917.38;5056395;28;20445;-70
2024/02/21 01:53:52;;;;;;;2.43;1.83;;;;;;;0.49;75.87;100913.09;5055970;28;20796;-71
2024/02/21 01:56:20;;;;;;;2.07;1.70;;;;;;;0.49;75.94;100901.09;5056316;28;20971;-70
2024/02/21 01:58:49;;;;;;;2.83;2.00;;;;;;;0.49;75.82;100901.09;5056183;28;20931;-70
2024/02/21 02:01:17;;;;;;;4.83;2.43;;;;;;;0.49;76.34;100901.09;5056089;28;20478;-70
2024/02/21 02:03:46;;;;;;;4.10;2.20;;;;;;;0.50;76.41;100897.69;5055945;28;20440;-71
2024/02/21 02:06:14;;;;;;;4.40;2.50;;;;;;;0.49;76.00;100889.94;5056161;28;20429;-71
2024/02/21 02:08:42;;;;;;;4.63;2.27;;;;;;;0.51;76.48;100896.84;5056143;28;20448;-71
2024/02/21 02:11:10;;;;;;;4.30;2.53;;;;;;;0.51;76.01;100888.28;5056272;28;20442;-72
2024/02/21 02:13:37;;;;;;;4.03;2.23;;;;;;;0.52;76.28;100892.56;5056008;28;20446;-72
2024/02/21 02:16:04;;;;;;;3.03;2.03;;;;;;;0.52;76.33;100884.84;5043800;28;20438;-72
2024/02/21 02:18:31;;;;;;;4.37;2.60;;;;;;;0.52;76.44;100883.13;5035781;28;20445;-72
2024/02/21 02:20:58;;;;;;;4.90;2.70;;;;;;;0.52;76.75;100885.72;5035859;28;20439;-71
2024/02/21 02:23:27;;;;;;;4.60;2.47;;;;;;;0.53;76.43;100877.13;5035772;28;20462;-72
2024/02/21 02:25:54;;;;;;;4.30;2.60;;;;;;;0.53;76.18;100859.13;5035789;28;20435;-72
2024/02/21 02:28:22;;;;;;;6.13;2.53;;;;;;;0.53;76.01;100851.41;5035930;28;20446;-72
2024/02/21 02:30:49;;;;;;;5.57;3.10;;;;;;;0.54;76.49;100853.16;5035805;28;20936;-72
2024/02/21 02:33:18;;;;;;;3.23;2.70;;;;;;;0.54;76.33;100847.13;5035682;28;20457;-72
2024/02/21 02:35:45;;;;;;;4.20;2.40;;;;;;;0.50;76.49;100824.72;5035916;28;20488;-71
2024/02/21 02:38:13;;;;;;;3.77;2.73;;;;;;;0.54;76.85;100835.13;5035403;28;20619;-71
2024/02/21 02:40:41;;;;;;;5.13;3.33;;;;;;;0.55;76.46;100839.44;5035540;28;21043;-71
2024/02/21 02:43:08;;;;;;;4.93;3.27;;;;;;;0.52;76.44;100833.38;5035325;28;20486;-71
2024/02/21 02:45:35;;;;;;;5.67;3.13;;;;;;;0.54;76.46;100842.84;5035769;28;20954;-72
2024/02/21 02:48:02;;;;;;;5.40;3.00;;;;;;;0.55;76.54;100844.56;5035201;28;20432;-72
2024/02/21 02:50:29;;;;;;;4.53;2.73;;;;;;;0.55;76.76;100849.72;5035690;28;20920;-71
2024/02/21 02:52:56;;;;;;;4.40;2.93;;;;;;;0.56;76.82;100837.72;5035368;28;20449;-71
2024/02/21 02:55:23;;;;;;;4.87;3.27;;;;;;;0.57;77.02;100832.63;5035056;28;20463;-72
2024/02/21 02:57:51;;;;;;;4.53;2.53;;;;;;;0.57;76.64;100830.03;5035511;28;20471;-72
2024/02/21 03:00:19;;;;;;;3.63;2.67;;;;;;;0.56;76.77;100828.28;5035061;28;20807;-72
2024/02/21 03:02:49;;;;;;;4.03;2.70;;;;;;;0.56;76.67;100825.72;5035137;28;20523;-72
2024/02/21 03:05:18;;;;;;;5.70;2.60;;;;;;;0.57;76.66;100824.88;5034979;28;20522;-72
2024/02/21 03:07:45;;;;;;;3.40;2.67;;;;;;;0.58;76.93;100828.31;5034968;28;20965;-71
2024/02/21 03:10:12;;;;;;;4.13;2.47;;;;;;;0.56;76.66;100827.41;5034910;28;20814;-72
2024/02/21 03:12:40;;;;;;;3.70;2.07;;;;;;;0.60;76.75;100824.09;5035116;28;20446;-72
2024/02/21 03:15:08;;;;;;;3.13;2.40;;;;;;;0.60;77.13;100816.34;5034866;28;20799;-72
2024/02/21 03:17:36;;;;;;;4.13;2.40;;;;;;;0.62;76.90;100824.94;5034814;28;20471;-72
2024/02/21 03:20:05;;;;;;;2.97;2.33;;;;;;;0.62;77.13;100819.81;5034852;28;20968;-69
2024/02/21 03:22:32;;;;;;;2.87;2.10;;;;;;;0.63;77.02;100821.56;5034573;28;20475;-71
2024/02/21 03:24:58;;;;;;;2.53;2.00;;;;;;;0.59;76.95;100812.03;5034660;28;20441;-71
2024/02/21 03:27:25;;;;;;;3.37;2.03;;;;;;;0.64;77.27;100812.13;5034636;28;20439;-72
2024/02/21 03:29:52;;;;;;;2.97;1.70;;;;;;;0.64;77.45;100807.84;5034978;28;20505;-72
2024/02/21 03:32:21;;;;;;;2.00;1.80;;;;;;;0.65;76.78;100804.44;5034625;28;20442;-71
2024/02/21 03:34:47;;;;;;;2.90;1.93;;;;;;;0.68;77.14;100803.59;5034610;28;20466;-72
2024/02/21 03:37:14;;;;;;;2.50;1.80;;;;;;;0.66;76.95;100788.13;5034433;28;20811;-72
2024/02/21 03:39:41;;;;;;;1.60;1.47;;;;;;;0.67;77.23;100791.56;5034482;28;20443;-71
2024/02/21 03:42:08;;;;;;;1.30;1.20;;;;;;;0.69;76.83;100789.91;5034473;28;20569;-72
2024/02/21 03:44:35;;;;;;;1.40;1.30;;;;;;;0.64;76.86;100770.94;5034319;28;20445;-71
2024/02/21 03:47:02;;;;;;;1.50;1.40;;;;;;;0.70;77.18;100777.03;5034191;28;20446;-72
2024/02/21 03:49:31;;;;;;;2.13;1.33;;;;;;;0.71;77.53;100776.22;5034300;28;20935;-71
2024/02/21 03:51:58;;;;;;;1.60;1.40;;;;;;;0.72;77.60;100770.22;5034197;28;20460;-71
2024/02/21 03:54:24;;;;;;;1.03;0.97;;;;;;;0.72;77.26;100765.06;5048657;28;20815;-71
2024/02/21 03:56:51;;;;;;;1.33;1.17;;;;;;;0.73;76.81;100766.78;5054088;28;20829;-72
2024/02/21 03:59:18;;;;;;;1.70;1.40;;;;;;;0.75;77.26;100761.69;5054101;28;21199;-72
2024/02/21 04:01:45;;;;;;;1.43;1.33;;;;;;;0.75;77.27;100756.53;5053305;28;20446;-71
2024/02/21 04:04:12;;;;;;;1.63;1.20;;;;;;;0.75;77.47;100749.66;5053900;28;20918;-72
2024/02/21 04:06:48;;;;;;;1.20;1.10;;;;;;;0.77;77.25;100754.84;5053831;28;20434;-72
2024/02/21 04:09:15;;;;;;;1.13;1.03;;;;;;;0.78;76.95;100754.00;5054001;28;20449;-72
2024/02/21 04:11:42;;;;;;;1.30;1.03;;;;;;;0.79;77.36;100750.56;5053735;28;20445;-72
2024/02/21 04:14:11;;;;;;;1.10;1.00;;;;;;;0.79;77.09;100745.44;5053728;28;20436;-72
2024/02/21 04:16:38;;;;;;;1.17;0.90;;;;;;;0.79;77.43;100745.44;5053738;28;20449;-72
2024/02/21 04:19:04;;;;;;;1.60;1.17;;;;;;;0.81;77.37;100741.19;5053598;28;20806;-72
2024/02/21 04:21:31;;;;;;;2.23;1.47;;;;;;;0.83;77.37;100743.78;5053708;28;20806;-71
2024/02/21 04:24:01;;;;;;;1.10;1.00;;;;;;;0.84;77.74;100733.50;5053437;28;20478;-71
2024/02/21 04:26:28;;;;;;;1.30;1.20;;;;;;;0.84;77.23;100736.06;5053568;28;20444;-71
2024/02/21 04:28:55;;;;;;;1.00;1.00;;;;;;;0.84;77.34;100728.34;5053593;28;20437;-75
2024/02/21 04:31:21;;;;;;;1.63;0.87;;;;;;;0.85;77.69;100719.81;5053303;28;20452;-74
2024/02/21 04:33:48;;;;;;;2.60;0.80;;;;;;;0.86;77.28;100706.06;5053428;28;20451;-75
2024/02/21 04:36:15;;;;;;;0.80;0.80;;;;;;;0.86;77.09;100706.06;5053211;28;20445;-75
2024/02/21 04:38:42;;;;;;;1.10;1.00;;;;;;;0.86;77.26;100708.66;5053280;28;20840;-75
2024/02/21 04:41:10;;;;;;;1.30;0.97;;;;;;;0.86;77.22;100713.78;5053505;28;20801;-75
2024/02/21 04:43:37;;;;;;;1.60;1.07;;;;;;;0.88;77.50;100703.50;5052957;28;20477;-75
2024/02/21 04:46:05;;;;;;;1.67;0.90;;;;;;;0.83;77.42;100685.41;5053075;28;20441;-75
2024/02/21 04:48:32;;;;;;;1.10;1.00;;;;;;;0.89;77.42;100700.97;5053110;28;20432;-75
2024/02/21 04:50:59;;;;;;;2.20;1.03;;;;;;;0.91;77.22;100698.44;5053067;28;20450;-75
2024/02/21 04:53:26;;;;;;;1.33;1.10;;;;;;;0.91;77.38;100696.72;5053267;28;20439;-74
2024/02/21 04:55:53;;;;;;;1.27;1.17;;;;;;;0.93;77.87;100694.13;5052788;28;20461;-75
2024/02/21 04:58:21;;;;;;;1.10;0.70;;;;;;;0.94;77.80;100696.75;5052848;28;20447;-75
2024/02/21 05:00:48;;;;;;;1.00;0.87;;;;;;;0.87;77.65;100676.88;5052844;28;20446;-75
2024/02/21 05:03:15;;;;;;;3.37;0.90;;;;;;;0.95;77.60;100687.31;5052753;28;20573;-75
2024/02/21 05:05:42;;;;;;;1.10;1.00;;;;;;;0.95;77.78;100670.13;5052826;28;20525;-75
2024/02/21 05:08:10;;;;;;;1.10;1.00;;;;;;;0.97;77.80;100678.75;5053004;28;20957;-75
2024/02/21 05:10:37;;;;;;;2.27;1.00;;;;;;;0.97;77.17;100676.19;5052759;28;20817;-72
2024/02/21 05:13:04;;;;;;;2.47;1.40;;;;;;;0.98;77.89;100662.44;5051785;28;20445;-72
2024/02/21 05:15:33;;;;;;;0.77;0.63;;;;;;;1.00;77.27;100662.50;5052669;28;20940;-72
2024/02/21 05:17:59;;;;;;;2.83;1.03;;;;;;;0.99;77.69;100661.63;5052592;28;20876;-72
2024/02/21 05:20:26;;;;;;;1.33;1.23;;;;;;;1.01;77.41;100654.75;5052460;28;20434;-72
2024/02/21 05:22:53;;;;;;;2.13;1.17;;;;;;;1.02;77.90;100653.06;5052566;28;20497;-72
2024/02/21 05:25:20;;;;;;;1.67;0.90;;;;;;;1.03;77.96;100652.22;5052831;28;20431;-72
2024/02/21 05:27:47;;;;;;;2.17;1.60;;;;;;;1.05;77.66;100652.22;5052365;28;20438;-72
2024/02/21 05:30:14;;;;;;;0.97;0.87;;;;;;;1.07;77.78;100648.84;5052641;28;20465;-72
2024/02/21 05:32:43;;;;;;;2.40;1.03;;;;;;;1.05;77.67;100644.50;5052320;28;20942;-72
2024/02/21 05:35:09;;;;;;;3.33;1.10;;;;;;;1.09;77.51;100647.16;5052415;28;20438;-72
2024/02/21 05:37:36;;;;;;;1.97;1.30;;;;;;;1.05;77.70;100632.50;5052420;28;20453;-72
2024/02/21 05:40:03;;;;;;;2.67;1.20;;;;;;;1.12;78.25;100641.19;5052472;28;20448;-78
2024/02/21 05:42:30;;;;;;;1.90;1.10;;;;;;;1.13;77.88;100632.59;5052553;28;21012;-78
2024/02/21 05:44:57;;;;;;;4.00;1.47;;;;;;;1.14;77.73;100624.03;5052747;28;20440;-78
2024/02/21 05:47:24;;;;;;;1.10;1.00;;;;;;;1.16;77.67;100622.31;5052566;28;20955;-79
2024/02/21 05:49:54;;;;;;;3.80;1.70;;;;;;;1.17;77.89;100621.50;5052749;28;20423;-77
2024/02/21 05:52:21;;;;;;;1.83;1.13;;;;;;;1.19;77.99;100617.22;5052262;28;20482;-79
2024/02/21 05:54:50;;;;;;;1.97;1.20;;;;;;;1.19;77.83;100612.94;5052460;28;20470;-79
2024/02/21 05:57:18;;;;;;;1.37;1.13;;;;;;;1.18;78.21;100613.78;5052363;28;20441;-79
2024/02/21 05:59:45;;;;;;;3.30;1.40;;;;;;;1.22;77.94;100615.56;5052706;28;20468;-79
2024/02/21 06:02:12;;;;;;;2.83;1.13;;;;;;;1.24;77.80;100611.28;5052174;28;20443;-78
2024/02/21 06:04:39;;;;;;;2.83;1.30;;;;;;;1.26;78.19;100606.16;5052309;28;20433;-78
2024/02/21 06:07:07;;;;;;;1.90;1.30;;;;;;;1.26;78.09;100603.56;5052764;28;20533;-79
2024/02/21 06:09:34;;;;;;;1.20;1.10;;;;;;;1.27;77.92;100594.97;5052548;28;20446;-78
2024/02/21 06:12:01;;;;;;;2.07;0.93;;;;;;;1.27;78.15;100592.41;5052323;28;20440;-77
2024/02/21 06:14:28;;;;;;;2.30;1.10;;;;;;;1.30;77.99;100589.88;5052140;28;20452;-78
2024/02/21 06:16:55;;;;;;;2.87;1.57;;;;;;;1.32;77.73;100587.31;5052079;28;20440;-78
2024/02/21 06:19:22;;;;;;;1.90;1.07;;;;;;;1.33;78.02;100587.31;5052292;28;20443;-71
2024/02/21 06:21:48;;;;;;;3.30;1.50;;;;;;;1.34;78.30;100586.50;5052163;28;20966;-71
2024/02/21 06:24:17;;;;;;;2.03;1.60;;;;;;;1.35;78.52;100582.19;5053921;28;20485;-71
2024/02/21 06:26:44;;;;;;;1.30;1.20;;;;;;;1.36;78.43;100579.66;5055929;28;20439;-72
2024/02/21 06:29:13;;;;;;;1.57;1.20;;;;;;;1.38;78.18;100575.34;5055807;28;20462;-72
2024/02/21 06:31:41;;;;;;;3.40;1.80;;;;;;;1.38;77.96;100585.66;5055527;28;20443;-71
2024/02/21 06:34:08;;;;;;;2.83;1.57;;;;;;;1.38;78.30;100583.09;5055696;28;20427;-71
2024/02/21 06:36:35;;;;;;;1.60;1.43;;;;;;;1.40;78.62;100585.69;5055512;28;20436;-71
2024/02/21 06:39:04;;;;;;;1.40;1.30;;;;;;;1.41;78.24;100580.53;5055646;28;20458;-72
2024/02/21 06:41:34;;;;;;;1.43;1.30;;;;;;;1.42;78.46;100574.56;5055440;28;20439;-71
2024/02/21 06:44:01;;;;;;;2.40;1.40;;;;;;;1.44;78.35;100577.16;5055285;28;20479;-71
2024/02/21 06:46:29;;;;;;;2.93;1.80;;;;;;;1.45;78.42;100569.44;5055335;28;20444;-71
2024/02/21 06:48:57;;;;;;;5.63;1.70;;;;;;;1.45;78.60;100561.72;5055424;28;20512;-78
2024/02/21 06:51:24;;;;;;;2.57;1.80;;;;;;;1.47;78.70;100569.44;5055413;28;20918;-78
2024/02/21 06:53:51;;;;;;;5.00;1.50;;;;;;;1.49;78.49;100570.34;5055564;28;20810;-78
2024/02/21 06:56:18;;;;;;;3.10;1.60;;;;;;;1.50;78.76;100566.03;5055386;28;20474;-78
2024/02/21 06:58:46;;;;;;;2.23;1.50;;;;;;;1.52;79.00;100569.50;5055243;28;20448;-79
2024/02/21 07:01:13;;;;;;;1.63;1.37;;;;;;;1.52;78.51;100569.50;5054854;28;20444;-75
2024/02/21 07:03:40;;;;;;;4.13;1.70;;;;;;;1.54;78.60;100558.34;5054890;28;20490;-75
2024/02/21 07:06:07;;;;;;;2.97;1.57;;;;;;;1.55;79.01;100560.09;5055134;28;20444;-74
2024/02/21 07:08:34;;;;;;;3.10;1.63;;;;;;;1.57;78.78;100554.94;5055032;28;20959;-76
2024/02/21 07:11:00;;;;;;;2.20;1.53;;;;;;;1.59;78.77;100550.66;5055102;28;20444;-76
2024/02/21 07:13:27;;;;;;;2.87;1.77;;;;;;;1.59;78.86;100545.50;5054872;28;20448;-74
2024/02/21 07:15:56;;;;;;;3.47;1.63;;;;;;;1.60;78.79;100544.66;5054868;28;20780;-75
2024/02/21 07:18:24;;;;;;;1.90;1.40;;;;;;;1.61;78.93;100536.06;5054914;28;20532;-75
2024/02/21 07:20:51;;;;;;;4.53;1.80;;;;;;;1.63;78.46;100531.81;5054901;28;20611;-75
2024/02/21 07:23:18;;;;;;;2.53;1.67;;;;;;;1.64;78.47;100523.22;5054582;28;20484;-75
2024/02/21 07:25:44;;;;;;;2.07;1.73;;;;;;;1.64;78.58;100512.91;5054705;28;20444;-75
2024/02/21 07:28:12;;;;;;;2.37;1.77;;;;;;;1.65;78.79;100510.34;5054504;28;20922;-75
2024/02/21 07:30:39;;;;;;;4.57;2.60;;;;;;;1.66;78.63;100506.03;5054679;28;20455;-69
2024/02/21 07:33:08;;;;;;;3.93;2.00;;;;;;;1.67;78.95;100511.19;5054428;28;20919;-70
2024/02/21 07:35:37;;;;;;;3.00;1.83;;;;;;;1.67;79.19;100502.59;5053691;28;20498;-70
2024/02/21 07:38:04;;;;;;;4.20;2.20;;;;;;;1.70;79.01;100507.78;5054378;28;20530;-70
2024/02/21 07:40:31;;;;;;;3.83;1.70;;;;;;;1.73;78.75;100507.81;5054656;28;20450;-70
2024/02/21 07:42:58;;;;;;;2.67;1.70;;;;;;;1.74;78.79;100503.53;5054363;28;20443;-70
2024/02/21 07:45:26;;;;;;;4.03;2.00;;;;;;;1.75;78.74;100506.13;5054151;28;20439;-70
2024/02/21 07:47:53;;;;;;;2.83;1.93;;;;;;;1.75;78.89;100500.97;5054193;28;20470;-69
2024/02/21 07:50:21;;;;;;;4.00;2.43;;;;;;;1.78;79.14;100506.16;5054073;28;20823;-70
2024/02/21 07:52:48;;;;;;;4.20;1.77;;;;;;;1.79;78.90;100505.31;5053885;28;20450;-69
2024/02/21 07:55:15;;;;;;;2.50;1.30;;;;;;;1.82;78.77;100504.47;5054056;28;20456;-70
2024/02/21 07:57:42;;;;;;;3.70;1.77;;;;;;;1.82;78.83;100504.47;5054067;28;20947;-70
2024/02/21 08:00:13;;;;;;;2.23;1.50;;;;;;;1.83;78.71;100504.47;5054151;28;20439;-75
2024/02/21 08:02:40;;;;;;;3.57;1.80;;;;;;;1.85;78.68;100505.38;5054021;28;20429;-75
2024/02/21 08:05:07;;;;;;;3.13;1.50;;;;;;;1.85;79.00;100495.03;5053929;28;20839;-76
2024/02/21 08:07:35;;;;;;;3.43;1.87;;;;;;;1.88;78.93;100491.63;5053751;28;20443;-75
2024/02/21 08:10:02;;;;;;;2.13;1.43;;;;;;;1.89;78.64;100490.75;5053777;28;20445;-75
2024/02/21 08:12:29;;;;;;;3.97;1.80;;;;;;;1.90;78.90;100489.91;5053955;28;20448;-75
2024/02/21 08:14:56;;;;;;;2.43;1.50;;;;;;;1.91;79.06;100489.94;5053757;28;20437;-75
2024/02/21 08:17:23;;;;;;;3.17;1.60;;;;;;;1.92;78.58;100495.94;5053857;28;20446;-75
2024/02/21 08:19:50;;;;;;;2.53;1.80;;;;;;;1.93;79.09;100495.09;5053819;28;20436;-75
2024/02/21 08:22:17;;;;;;;4.30;1.60;;;;;;;1.95;78.74;100495.97;5053642;28;20438;-75
2024/02/21 08:24:45;;;;;;;1.13;1.03;;;;;;;1.96;79.15;100491.66;5053409;28;20480;-75
2024/02/21 08:27:12;;;;;;;2.87;1.47;;;;;;;1.95;78.67;100492.53;5053417;28;20512;-75
2024/02/21 08:29:39;;;;;;;2.27;1.73;;;;;;;1.98;78.83;100495.13;5053285;28;20812;-75
2024/02/21 08:32:06;;;;;;;2.93;1.80;;;;;;;1.91;78.73;100482.19;5053444;28;20446;-76
2024/02/21 08:34:33;;;;;;;2.13;1.53;;;;;;;2.00;79.14;100490.84;5053300;28;20436;-75
2024/02/21 08:37:01;;;;;;;3.23;2.03;;;;;;;2.02;79.10;100494.31;5053374;28;20455;-75
2024/02/21 08:39:28;;;;;;;3.60;1.93;;;;;;;2.04;79.07;100497.75;5053353;28;20439;-73
2024/02/21 08:41:56;;;;;;;4.13;1.70;;;;;;;2.04;79.34;100492.59;5053196;28;20435;-72
2024/02/21 08:44:25;;;;;;;2.77;1.70;;;;;;;2.06;79.22;100493.47;5053183;28;20477;-71
2024/02/21 08:46:52;;;;;;;1.70;1.30;;;;;;;2.08;79.22;100494.38;5052792;28;20475;-72
2024/02/21 08:49:19;;;;;;;4.70;1.70;;;;;;;2.09;79.35;100490.91;5053171;28;20453;-72
2024/02/21 08:51:46;;;;;;;3.70;1.60;;;;;;;2.10;79.55;100496.09;5053054;28;20826;-73
2024/02/21 08:54:13;;;;;;;2.93;1.30;;;;;;;2.11;79.40;100489.22;5052729;28;20461;-73
2024/02/21 08:56:40;;;;;;;2.50;1.47;;;;;;;2.09;79.41;100483.19;5052987;28;20454;-73
2024/02/21 08:59:08;;;;;;;3.00;1.33;;;;;;;2.15;79.24;100488.38;5053125;28;20427;-73
2024/02/21 09:01:35;;;;;;;3.63;1.90;;;;;;;2.16;79.34;100484.97;5052974;28;20960;-74
2024/02/21 09:04:02;;;;;;;2.40;1.40;;;;;;;2.17;78.97;100481.53;5052792;28;20483;-72
2024/02/21 09:06:30;;;;;;;4.73;1.30;;;;;;;2.18;79.30;100472.91;5052875;28;20444;-73
2024/02/21 09:08:58;;;;;;;1.70;1.17;;;;;;;2.19;79.26;100472.09;5052870;28;20441;-76
2024/02/21 09:11:24;;;;;;;4.63;2.00;;;;;;;2.22;79.25;100472.09;5052734;28;20448;-75
2024/02/21 09:13:51;;;;;;;4.77;1.70;;;;;;;2.22;79.36;100469.50;5052634;28;20439;-75
2024/02/21 09:16:20;;;;;;;4.23;1.93;;;;;;;2.24;79.29;100467.78;5052967;28;20437;-76
2024/02/21 09:18:47;;;;;;;2.73;1.23;;;;;;;2.24;79.31;100462.63;5052601;28;20937;-75
2024/02/21 09:21:13;;;;;;;2.00;1.13;;;;;;;2.26;79.21;100458.34;5052717;28;20435;-75
2024/02/21 09:23:40;;;;;;;1.77;1.27;;;;;;;2.27;79.50;100452.34;5055710;28;20486;-75
2024/02/21 09:26:10;;;;;;;3.03;1.23;;;;;;;2.29;79.16;100453.19;5052694;28;20443;-72
2024/02/21 09:28:36;;;;;;;3.53;1.50;;;;;;;2.31;79.10;100453.22;5052624;28;20506;-74
2024/02/21 09:31:03;;;;;;;2.57;1.57;;;;;;;2.32;79.22;100440.31;5052451;28;20445;-73
2024/02/21 09:33:32;;;;;;;2.37;1.30;;;;;;;2.33;79.14;100436.88;5052391;28;20445;-75
2024/02/21 09:35:59;;;;;;;3.00;1.60;;;;;;;2.34;79.27;100436.03;5052410;28;20817;-75
2024/02/21 09:38:26;;;;;;;3.33;1.50;;;;;;;2.36;79.32;100439.50;5052465;28;20480;-75
2024/02/21 09:41:00;;;;;;;2.73;1.47;;;;;;;2.31;79.44;100428.25;5052443;28;20451;-74
2024/02/21 09:43:27;;;;;;;3.07;1.83;;;;;;;2.27;79.07;100418.78;5052352;28;20439;-76
2024/02/21 09:45:56;;;;;;;2.73;1.50;;;;;;;2.40;79.31;100434.34;5052720;28;20440;-76
2024/02/21 09:48:44;;;;;;;3.10;1.40;;;;;;;2.44;79.41;100425.72;5052844;28;20444;-72
2024/02/21 09:51:11;;;;;;;2.53;1.47;;;;;;;2.44;79.03;100418.00;5053306;28;20470;-79
2024/02/21 09:53:39;;;;;;;2.07;1.47;;;;;;;2.46;79.38;100431.78;5053062;28;20527;-79
2024/02/21 09:56:09;;;;;;;6.20;2.10;;;;;;;2.48;79.21;100424.91;5052800;28;20471;-81
2024/02/21 09:58:36;;;;;;;3.30;1.23;;;;;;;2.46;79.21;100416.28;5057642;28;20432;-78
2024/02/21 10:01:06;;;;;;;1.97;1.40;;;;;;;2.51;79.19;100417.19;5061272;28;20440;-80
2024/02/21 10:03:35;;;;;;;7.07;1.90;;;;;;;2.51;79.46;100418.03;5061632;28;20439;-82
2024/02/21 10:06:02;;;;;;;3.03;1.20;;;;;;;2.50;79.35;100415.44;5057503;28;20437;-75
2024/02/21 10:08:29;;;;;;;3.60;1.17;;;;;;;2.53;79.15;100415.44;5060725;28;20480;-80
2024/02/21 10:10:59;;;;;;;2.00;1.20;;;;;;;2.56;79.37;100420.66;5059608;28;20438;-79
2024/02/21 10:13:27;;;;;;;3.83;1.47;;;;;;;2.56;79.43;100410.31;5060404;28;20465;-78
2024/02/21 10:16:07;;;;;;;2.33;1.33;;;;;;;2.58;79.37;100408.59;5062076;28;20455;-79
2024/02/21 10:18:36;;;;;;;4.33;1.87;;;;;;;2.57;79.57;100406.88;5060809;28;20448;-74
2024/02/21 10:21:04;;;;;;;2.37;1.10;;;;;;;2.60;79.23;100406.88;5056104;28;20964;-73
2024/02/21 10:23:42;;;;;;;2.90;1.50;;;;;;;2.52;79.37;100388.75;5055934;28;20810;-73
2024/02/21 10:26:09;;;;;;;2.47;1.40;;;;;;;2.63;79.28;100401.72;5056189;28;20497;-73
2024/02/21 10:28:41;;;;;;;1.70;1.10;;;;;;;2.63;79.32;100399.16;5056003;28;20436;-71
2024/02/21 10:31:08;;;;;;;2.17;1.27;;;;;;;2.57;79.27;100386.22;5055865;28;20440;-71
2024/02/21 10:33:37;;;;;;;2.13;1.40;;;;;;;2.67;79.10;100398.31;5055742;28;20440;-72
2024/02/21 10:36:09;;;;;;;1.43;1.10;;;;;;;2.68;79.22;100400.03;5055604;28;20448;-71
2024/02/21 10:38:36;;;;;;;1.37;1.17;;;;;;;2.66;79.36;100396.56;5055602;28;20445;-71
2024/02/21 10:41:05;;;;;;;1.70;1.10;;;;;;;2.70;79.15;100397.44;5055530;28;20528;-72
2024/02/21 10:43:38;;;;;;;1.80;1.13;;;;;;;2.70;79.02;100392.25;5055379;28;20550;-73
2024/02/21 10:46:07;;;;;;;1.70;1.20;;;;;;;2.70;79.05;100390.56;5055299;28;20806;-73
2024/02/21 10:48:42;;;;;;;2.17;1.70;;;;;;;2.70;78.93;100385.41;5055353;28;20449;-73
2024/02/21 10:51:16;;;;;;;1.93;1.50;;;;;;;2.72;78.98;100388.84;5055270;28;20443;-73
2024/02/21 10:53:47;;;;;;;2.33;1.20;;;;;;;2.73;79.08;100382.84;5055412;28;20438;-73
2024/02/21 10:56:23;;;;;;;1.10;1.00;;;;;;;2.74;78.92;100384.53;5054923;28;20469;-73
2024/02/21 10:58:51;;;;;;;1.00;0.90;;;;;;;2.74;78.98;100371.63;5055655;28;20442;-80
2024/02/21 11:01:19;;;;;;;1.90;1.17;;;;;;;2.75;78.81;100365.59;5056549;28;20433;-80
2024/02/21 11:03:50;;;;;;;1.50;0.80;;;;;;;2.76;78.95;100367.34;5056161;28;20441;-80
2024/02/21 11:06:18;;;;;;;2.07;1.33;;;;;;;2.69;79.01;100355.25;5056261;28;20434;-80
2024/02/21 11:08:45;;;;;;;1.77;1.10;;;;;;;2.79;78.90;100359.59;5055979;28;20510;-80
2024/02/21 11:11:17;;;;;;;1.30;1.20;;;;;;;2.80;78.87;100357.88;5054810;28;20432;-80
2024/02/21 11:13:45;;;;;;;1.70;1.13;;;;;;;2.80;78.97;100356.13;5055884;28;20993;-80
2024/02/21 11:16:22;;;;;;;1.27;1.00;;;;;;;2.80;79.07;100353.56;5055674;28;20923;-80
2024/02/21 11:18:50;;;;;;;2.03;1.10;;;;;;;2.83;78.94;100358.72;5056078;28;20446;-80
2024/02/21 11:21:17;;;;;;;1.40;1.07;;;;;;;2.81;78.78;100341.50;5055893;28;20527;-80
2024/02/21 11:23:44;;;;;;;1.70;0.90;;;;;;;2.85;78.89;100353.56;5055824;28;20527;-82
2024/02/21 11:26:20;;;;;;;0.70;0.70;;;;;;;2.86;78.77;100351.84;5055322;28;20476;-83
2024/02/21 11:28:57;;;;;;;1.33;1.00;;;;;;;2.86;78.88;100355.28;5055911;28;20474;-81
2024/02/21 11:31:27;;;;;;;2.57;1.10;;;;;;;2.88;78.97;100355.31;5055742;28;20434;-81
2024/02/21 11:33:56;;;;;;;2.70;1.23;;;;;;;2.86;79.21;100341.50;5056111;28;20452;-80
2024/02/21 11:36:27;;;;;;;1.20;1.10;;;;;;;2.90;78.98;100354.47;5055769;28;20539;-81